Mar del Plata, Argentina

3:11 AM ART en Septiembre 22, 2014 (GMT -0300)
Mar Del Plata International | Change Station
CLOSE
Current Station
Aeropuerto
Location: Mar del Plata,
Altura: 69 ft
Estaciones meteorológicas cercanas

Alt 69 ft 37.93 °S, 57.57 °W | Updated 11 minutes ago

Clear
Despejado
50 ° F
Sensación térmica 50 ° F
N
13
Viento Variable Viento desde NE

Hoy
Alta -- | Baja -- ° F
--% Posibilidad de precipitaciones
Ayer
Alta -- | Baja -- ° F
Precip. -- pul
6:39 AM 6:46 PM
Creciente menguante, 4% visible
Presión 30.04 pul
Visibilidad 5.0 Millas
Nubes
Punto de rocío 48 ° F
Humedad 94%
Precipitaciones 0.00 pul
Espesor de la nieve No disponible.
UV No disponible.
Polen No disponible.
Calidad del aire No disponible.
Flu Activity No disponible.
METAR SAZM 220600Z 05011KT 8000 NSC 10/09 Q1017

More Conditions Fewer Conditions

Presión 30.04 pul
Visibilidad 5.0 Millas
Nubes
Punto de rocío 48 ° F
Humedad 94%
Precipitaciones 0.00 pul
Espesor de la nieve No disponible.
UV No disponible.
Polen No disponible.
Calidad del aire No disponible.
Flu Activity No disponible.
METAR SAZM 220600Z 05011KT 8000 NSC 10/09 Q1017

More Conditions Fewer Conditions

10-Day Weather Forecast

Almanac

Astronomía

Sep. 22, 2014 Salida Puesta
Hora real 6:39 AM ART 6:46 PM ART
Crepúsculo civil 6:13 AM ART 7:13 PM ART
Crepúsculo náutico 5:42 AM ART 7:43 PM ART
Crepúsculo astronómico 5:11 AM ART 8:15 PM ART
Luna 5:37 AM ART 5:29 PM ART
Horas de luz 12h 59m
Horas de luz
12h 07m
Tomorrow will be 2m 26s longer.
Creciente menguante, 4% of the Moon is Illuminated
Hoy
Creciente menguante
Sep 24
Nueva
Oct 1
Cuarto creciente
Oct 8
Luna llena
Oct 15
Cuarto menguante

Extremos de ayer

Máximos del país Bajas del país

Community

WunderPhotos

Upload Photos

1,755,392 ¡fotos cargadas!

Nearby

Calidad del aire

Not available.

Grosos de nieve

Not available.

Actividad de terremotos

Ciudad Distance Mag. Tiempo y dato
No hay informes recientes de la actividad sísmica.
Magnitud mínima muestra es 2,5.

Temperaturas de aguas costeras

Lugar Temperatura
Sin partes meteorológicos de las estaciones

Estaciones meteorológicas cercanas